Silver Bay, MN

10:51 PM CST on December 18, 2014 (GMT -0600)
Grand Marais | Change Station
CLOSE
Current Station
Airport
Location: Grand Marais,
Elevation: 607 ft
Nearby Weather Stations

Elev 607 ft 47.75 °N, 90.35 °W | Updated 55 minutes ago

Overcast
Overcast
19 °F
Feels Like 11 °F
N
6
Wind Variable Wind from NNW
Gusts 1 mph

Today
High -- | Low -- °F
--% Chance of Precip.
Yesterday
High -- | Low -- °F
Precip. -- in
7:47 AM 4:15 PM
Waning Crescent, 10% visible
Pressure 30.35 in
Visibility -9999.0 miles
Clouds
Windchill 11 °F
Dew Point 13 °F
Humidity 77%
Rainfall 0.00 in
Snow Depth Not available.
UV Not available.
Pollen .10 out of 12
Air Quality Not available.
Flu Activity Not available.
METAR KGNA 190356Z AUTO 33005KT M07/M11 A3029 RMK AO1 SLP275 T10721106

More Conditions Fewer Conditions

Pressure 30.35 in
Visibility -9999.0 miles
Clouds
Windchill 11 °F
Dew Point 13 °F
Humidity 77%
Rainfall 0.00 in
Snow Depth Not available.
UV Not available.
Pollen .10 out of 12
Air Quality Not available.
Flu Activity Not available.
METAR KGNA 190356Z AUTO 33005KT M07/M11 A3029 RMK AO1 SLP275 T10721106

More Conditions Fewer Conditions

10-Day Weather Forecast

Almanac

Astronomy

Dec. 18, 2014 Rise Set
Actual Time
Civil Twilight
Nautical Twilight
Astronomical Twilight
Moon
Length of Visible Light
Length of Day
Tomorrow will be .
, % of the Moon is Illuminated

Today's Extremes

State Highs State Lows

Community

WunderPhotos

Upload Photos

1,778,960 photos uploaded!

WunderBlogs® & News

Nearby

Air Quality

  Air Quality AQ Index Pollutant
Not available.

Snow Depth

Station Depth Elevation

Earthquake Activity

City Distance Mag. Time & Date
Minimum magnitude displayed is 2.5.

Coastal Water Temperatures

Place Temperature

Nearby Weather Stations